sensor_id;sensor_type;location;lat;lon;timestamp;temperature;humidity
6986;DHT22;3533;51.246;6.850;2023-03-14T00:00:11;17.90;42.50
6986;DHT22;3533;51.246;6.850;2023-03-14T00:02:37;17.90;42.40
6986;DHT22;3533;51.246;6.850;2023-03-14T00:05:03;17.90;42.50
6986;DHT22;3533;51.246;6.850;2023-03-14T00:07:35;17.90;42.60
6986;DHT22;3533;51.246;6.850;2023-03-14T00:10:07;17.90;42.50
6986;DHT22;3533;51.246;6.850;2023-03-14T00:12:32;17.90;42.50
6986;DHT22;3533;51.246;6.850;2023-03-14T00:14:58;17.90;42.60
6986;DHT22;3533;51.246;6.850;2023-03-14T00:17:26;17.90;42.60
6986;DHT22;3533;51.246;6.850;2023-03-14T00:19:51;17.90;42.70
6986;DHT22;3533;51.246;6.850;2023-03-14T00:22:21;17.90;42.60
6986;DHT22;3533;51.246;6.850;2023-03-14T00:24:47;17.90;42.60
6986;DHT22;3533;51.246;6.850;2023-03-14T00:27:13;17.90;42.80
6986;DHT22;3533;51.246;6.850;2023-03-14T00:29:38;17.90;42.80
6986;DHT22;3533;51.246;6.850;2023-03-14T00:32:04;17.90;42.70
6986;DHT22;3533;51.246;6.850;2023-03-14T00:34:30;17.90;42.80
6986;DHT22;3533;51.246;6.850;2023-03-14T00:36:56;17.90;42.70
6986;DHT22;3533;51.246;6.850;2023-03-14T00:39:21;17.90;42.80
6986;DHT22;3533;51.246;6.850;2023-03-14T00:41:47;17.90;42.80
6986;DHT22;3533;51.246;6.850;2023-03-14T00:44:13;17.90;42.80
6986;DHT22;3533;51.246;6.850;2023-03-14T00:46:38;17.90;42.80
6986;DHT22;3533;51.246;6.850;2023-03-14T00:49:04;17.90;42.80
6986;DHT22;3533;51.246;6.850;2023-03-14T00:51:29;17.90;42.80
6986;DHT22;3533;51.246;6.850;2023-03-14T00:53:55;17.90;43.60
6986;DHT22;3533;51.246;6.850;2023-03-14T00:56:20;17.90;42.90
6986;DHT22;3533;51.246;6.850;2023-03-14T00:58:46;17.90;42.80
6986;DHT22;3533;51.246;6.850;2023-03-14T01:01:18;17.90;42.90
6986;DHT22;3533;51.246;6.850;2023-03-14T01:03:44;17.90;42.80
6986;DHT22;3533;51.246;6.850;2023-03-14T01:06:24;17.90;42.80
6986;DHT22;3533;51.246;6.850;2023-03-14T01:08:50;17.90;42.80
6986;DHT22;3533;51.246;6.850;2023-03-14T01:11:19;17.90;42.80
6986;DHT22;3533;51.246;6.850;2023-03-14T01:13:45;17.90;42.80
6986;DHT22;3533;51.246;6.850;2023-03-14T01:16:12;17.90;42.80
6986;DHT22;3533;51.246;6.850;2023-03-14T01:18:39;17.90;42.80
6986;DHT22;3533;51.246;6.850;2023-03-14T01:21:33;17.90;42.80
6986;DHT22;3533;51.246;6.850;2023-03-14T01:24:00;17.90;42.80
6986;DHT22;3533;51.246;6.850;2023-03-14T01:26:29;17.90;42.80
6986;DHT22;3533;51.246;6.850;2023-03-14T01:28:56;17.90;42.80
6986;DHT22;3533;51.246;6.850;2023-03-14T01:31:22;17.90;42.80
6986;DHT22;3533;51.246;6.850;2023-03-14T01:33:48;17.90;42.80
6986;DHT22;3533;51.246;6.850;2023-03-14T01:36:14;17.90;42.90
6986;DHT22;3533;51.246;6.850;2023-03-14T01:38:39;17.90;42.90
6986;DHT22;3533;51.246;6.850;2023-03-14T01:41:14;17.90;42.80
6986;DHT22;3533;51.246;6.850;2023-03-14T01:43:40;17.90;42.80
6986;DHT22;3533;51.246;6.850;2023-03-14T01:49:02;17.90;42.80
6986;DHT22;3533;51.246;6.850;2023-03-14T01:51:38;17.90;42.80
6986;DHT22;3533;51.246;6.850;2023-03-14T01:54:12;17.90;42.80
6986;DHT22;3533;51.246;6.850;2023-03-14T01:56:41;17.90;42.80
6986;DHT22;3533;51.246;6.850;2023-03-14T01:59:10;17.80;42.80
6986;DHT22;3533;51.246;6.850;2023-03-14T02:01:36;17.80;42.80
6986;DHT22;3533;51.246;6.850;2023-03-14T02:04:05;17.80;42.80
6986;DHT22;3533;51.246;6.850;2023-03-14T02:06:39;17.90;42.80
6986;DHT22;3533;51.246;6.850;2023-03-14T02:09:06;17.90;42.80
6986;DHT22;3533;51.246;6.850;2023-03-14T02:11:32;17.90;42.80
6986;DHT22;3533;51.246;6.850;2023-03-14T02:13:58;17.90;42.80
6986;DHT22;3533;51.246;6.850;2023-03-14T02:16:27;17.90;42.80
6986;DHT22;3533;51.246;6.850;2023-03-14T02:18:53;17.90;42.80
6986;DHT22;3533;51.246;6.850;2023-03-14T02:21:20;17.90;42.80
6986;DHT22;3533;51.246;6.850;2023-03-14T02:25:03;17.80;42.80
6986;DHT22;3533;51.246;6.850;2023-03-14T02:27:08;17.90;42.80
6986;DHT22;3533;51.246;6.850;2023-03-14T02:29:37;17.90;42.80
6986;DHT22;3533;51.246;6.850;2023-03-14T02:32:05;17.80;42.80
6986;DHT22;3533;51.246;6.850;2023-03-14T02:34:31;17.80;42.80
6986;DHT22;3533;51.246;6.850;2023-03-14T02:36:58;17.90;42.80
6986;DHT22;3533;51.246;6.850;2023-03-14T02:39:35;17.90;42.80
6986;DHT22;3533;51.246;6.850;2023-03-14T02:42:02;17.80;42.80
6986;DHT22;3533;51.246;6.850;2023-03-14T02:44:27;17.90;42.80
6986;DHT22;3533;51.246;6.850;2023-03-14T02:46:53;17.80;42.80
6986;DHT22;3533;51.246;6.850;2023-03-14T02:49:18;17.90;42.80
6986;DHT22;3533;51.246;6.850;2023-03-14T02:51:45;17.80;42.80
6986;DHT22;3533;51.246;6.850;2023-03-14T02:54:11;17.80;42.80
6986;DHT22;3533;51.246;6.850;2023-03-14T02:56:37;17.90;42.80
6986;DHT22;3533;51.246;6.850;2023-03-14T02:59:06;17.80;42.70
6986;DHT22;3533;51.246;6.850;2023-03-14T03:01:33;17.80;42.80
6986;DHT22;3533;51.246;6.850;2023-03-14T03:03:58;17.90;42.80
6986;DHT22;3533;51.246;6.850;2023-03-14T03:06:24;17.80;42.80
6986;DHT22;3533;51.246;6.850;2023-03-14T03:08:49;17.80;42.80
6986;DHT22;3533;51.246;6.850;2023-03-14T03:11:15;17.80;42.80
6986;DHT22;3533;51.246;6.850;2023-03-14T03:13:41;17.80;42.80
6986;DHT22;3533;51.246;6.850;2023-03-14T03:16:06;17.80;42.80
6986;DHT22;3533;51.246;6.850;2023-03-14T03:18:32;17.80;42.70
6986;DHT22;3533;51.246;6.850;2023-03-14T03:21:03;17.80;42.80
6986;DHT22;3533;51.246;6.850;2023-03-14T03:23:29;17.80;42.80
6986;DHT22;3533;51.246;6.850;2023-03-14T03:25:55;17.90;42.80
6986;DHT22;3533;51.246;6.850;2023-03-14T03:28:21;17.80;42.70
6986;DHT22;3533;51.246;6.850;2023-03-14T03:30:46;17.80;42.80
6986;DHT22;3533;51.246;6.850;2023-03-14T03:33:12;17.80;42.70
6986;DHT22;3533;51.246;6.850;2023-03-14T03:35:49;17.80;42.80
6986;DHT22;3533;51.246;6.850;2023-03-14T03:38:15;17.80;42.80
6986;DHT22;3533;51.246;6.850;2023-03-14T03:40:41;17.80;42.80
6986;DHT22;3533;51.246;6.850;2023-03-14T03:43:07;17.80;42.80
6986;DHT22;3533;51.246;6.850;2023-03-14T03:45:32;17.80;42.80
6986;DHT22;3533;51.246;6.850;2023-03-14T03:47:58;17.80;42.80
6986;DHT22;3533;51.246;6.850;2023-03-14T03:50:23;17.80;42.80
6986;DHT22;3533;51.246;6.850;2023-03-14T03:52:49;17.80;42.80
6986;DHT22;3533;51.246;6.850;2023-03-14T03:55:14;17.80;42.80
6986;DHT22;3533;51.246;6.850;2023-03-14T03:57:40;17.80;42.80
6986;DHT22;3533;51.246;6.850;2023-03-14T04:00:06;17.80;42.80
6986;DHT22;3533;51.246;6.850;2023-03-14T04:02:34;17.80;42.80
6986;DHT22;3533;51.246;6.850;2023-03-14T04:04:59;17.80;42.80
6986;DHT22;3533;51.246;6.850;2023-03-14T04:07:25;17.80;42.80
6986;DHT22;3533;51.246;6.850;2023-03-14T04:09:51;17.80;42.80
6986;DHT22;3533;51.246;6.850;2023-03-14T04:12:16;17.80;42.80
6986;DHT22;3533;51.246;6.850;2023-03-14T04:14:42;17.80;42.80
6986;DHT22;3533;51.246;6.850;2023-03-14T04:17:07;17.80;42.80
6986;DHT22;3533;51.246;6.850;2023-03-14T04:19:33;17.80;42.80
6986;DHT22;3533;51.246;6.850;2023-03-14T04:21:58;17.80;42.80
6986;DHT22;3533;51.246;6.850;2023-03-14T04:24:24;17.80;42.80
6986;DHT22;3533;51.246;6.850;2023-03-14T04:26:50;17.80;42.80
6986;DHT22;3533;51.246;6.850;2023-03-14T04:29:15;17.80;42.80
6986;DHT22;3533;51.246;6.850;2023-03-14T04:31:41;17.80;42.80
6986;DHT22;3533;51.246;6.850;2023-03-14T04:34:06;17.80;42.80
6986;DHT22;3533;51.246;6.850;2023-03-14T04:36:32;17.80;42.80
6986;DHT22;3533;51.246;6.850;2023-03-14T04:38:57;17.80;42.80
6986;DHT22;3533;51.246;6.850;2023-03-14T04:41:23;17.80;42.80
6986;DHT22;3533;51.246;6.850;2023-03-14T04:43:48;17.80;42.80
6986;DHT22;3533;51.246;6.850;2023-03-14T04:46:14;17.80;42.70
6986;DHT22;3533;51.246;6.850;2023-03-14T04:48:39;17.80;42.80
6986;DHT22;3533;51.246;6.850;2023-03-14T04:51:05;17.80;42.80
6986;DHT22;3533;51.246;6.850;2023-03-14T04:53:31;17.80;42.80
6986;DHT22;3533;51.246;6.850;2023-03-14T04:55:56;17.80;42.80
6986;DHT22;3533;51.246;6.850;2023-03-14T04:58:23;17.80;42.80
6986;DHT22;3533;51.246;6.850;2023-03-14T05:00:48;17.80;42.80
6986;DHT22;3533;51.246;6.850;2023-03-14T05:03:15;17.80;43.50
6986;DHT22;3533;51.246;6.850;2023-03-14T05:05:40;17.90;42.80
6986;DHT22;3533;51.246;6.850;2023-03-14T05:08:06;17.90;42.80
6986;DHT22;3533;51.246;6.850;2023-03-14T05:10:32;17.90;42.80
6986;DHT22;3533;51.246;6.850;2023-03-14T05:12:57;17.90;42.80
6986;DHT22;3533;51.246;6.850;2023-03-14T05:15:23;17.90;42.80
6986;DHT22;3533;51.246;6.850;2023-03-14T05:17:48;17.90;42.80
6986;DHT22;3533;51.246;6.850;2023-03-14T05:20:14;17.90;42.80
6986;DHT22;3533;51.246;6.850;2023-03-14T05:22:41;17.90;42.80
6986;DHT22;3533;51.246;6.850;2023-03-14T05:25:07;17.90;42.80
6986;DHT22;3533;51.246;6.850;2023-03-14T05:27:33;18.00;42.90
6986;DHT22;3533;51.246;6.850;2023-03-14T05:29:59;18.00;42.90
6986;DHT22;3533;51.246;6.850;2023-03-14T05:32:25;18.00;42.90
6986;DHT22;3533;51.246;6.850;2023-03-14T05:34:50;18.00;42.90
6986;DHT22;3533;51.246;6.850;2023-03-14T05:37:16;18.00;42.90
6986;DHT22;3533;51.246;6.850;2023-03-14T05:39:41;18.00;42.90
6986;DHT22;3533;51.246;6.850;2023-03-14T05:42:07;18.00;42.90
6986;DHT22;3533;51.246;6.850;2023-03-14T05:44:32;18.00;42.90
6986;DHT22;3533;51.246;6.850;2023-03-14T05:46:58;18.00;42.90
6986;DHT22;3533;51.246;6.850;2023-03-14T05:49:24;17.90;42.80
6986;DHT22;3533;51.246;6.850;2023-03-14T05:51:49;18.00;42.90
6986;DHT22;3533;51.246;6.850;2023-03-14T05:54:15;18.00;42.90
6986;DHT22;3533;51.246;6.850;2023-03-14T05:56:40;18.00;42.90
6986;DHT22;3533;51.246;6.850;2023-03-14T05:59:06;18.00;42.90
6986;DHT22;3533;51.246;6.850;2023-03-14T06:01:34;18.00;42.90
6986;DHT22;3533;51.246;6.850;2023-03-14T06:03:59;18.00;42.90
6986;DHT22;3533;51.246;6.850;2023-03-14T06:06:25;18.00;42.90
6986;DHT22;3533;51.246;6.850;2023-03-14T06:08:50;18.00;42.90
6986;DHT22;3533;51.246;6.850;2023-03-14T06:11:16;18.00;42.90
6986;DHT22;3533;51.246;6.850;2023-03-14T06:13:41;18.00;42.90
6986;DHT22;3533;51.246;6.850;2023-03-14T06:16:07;18.00;42.90
6986;DHT22;3533;51.246;6.850;2023-03-14T06:18:33;18.00;42.90
6986;DHT22;3533;51.246;6.850;2023-03-14T06:20:58;18.00;42.90
6986;DHT22;3533;51.246;6.850;2023-03-14T06:23:24;18.00;42.90
6986;DHT22;3533;51.246;6.850;2023-03-14T06:25:50;18.00;42.90
6986;DHT22;3533;51.246;6.850;2023-03-14T06:28:16;18.00;42.90
6986;DHT22;3533;51.246;6.850;2023-03-14T06:30:41;18.00;42.90
6986;DHT22;3533;51.246;6.850;2023-03-14T06:33:07;18.00;42.90
6986;DHT22;3533;51.246;6.850;2023-03-14T06:35:33;18.00;42.90
6986;DHT22;3533;51.246;6.850;2023-03-14T06:37:59;18.00;42.90
6986;DHT22;3533;51.246;6.850;2023-03-14T06:40:24;18.00;42.90
6986;DHT22;3533;51.246;6.850;2023-03-14T06:42:50;18.00;42.90
6986;DHT22;3533;51.246;6.850;2023-03-14T06:45:15;18.00;42.90
6986;DHT22;3533;51.246;6.850;2023-03-14T06:47:41;17.90;42.80
6986;DHT22;3533;51.246;6.850;2023-03-14T06:50:08;18.00;42.90
6986;DHT22;3533;51.246;6.850;2023-03-14T06:52:34;18.00;42.90
6986;DHT22;3533;51.246;6.850;2023-03-14T06:55:00;18.00;42.90
6986;DHT22;3533;51.246;6.850;2023-03-14T06:57:25;18.00;42.90
6986;DHT22;3533;51.246;6.850;2023-03-14T06:59:51;18.00;42.90
6986;DHT22;3533;51.246;6.850;2023-03-14T07:02:16;18.00;42.90
6986;DHT22;3533;51.246;6.850;2023-03-14T07:04:42;18.00;42.90
6986;DHT22;3533;51.246;6.850;2023-03-14T07:07:08;18.00;42.90
6986;DHT22;3533;51.246;6.850;2023-03-14T07:09:34;18.10;43.00
6986;DHT22;3533;51.246;6.850;2023-03-14T07:11:59;18.10;43.80
6986;DHT22;3533;51.246;6.850;2023-03-14T07:14:25;18.00;42.90
6986;DHT22;3533;51.246;6.850;2023-03-14T07:16:51;18.10;43.00
6986;DHT22;3533;51.246;6.850;2023-03-14T07:19:17;18.10;43.00
6986;DHT22;3533;51.246;6.850;2023-03-14T07:21:43;18.10;43.00
6986;DHT22;3533;51.246;6.850;2023-03-14T07:24:08;18.10;43.00
6986;DHT22;3533;51.246;6.850;2023-03-14T07:26:34;18.10;43.10
6986;DHT22;3533;51.246;6.850;2023-03-14T07:29:00;18.10;43.00
6986;DHT22;3533;51.246;6.850;2023-03-14T07:31:28;18.10;43.00
6986;DHT22;3533;51.246;6.850;2023-03-14T07:33:54;18.10;43.00
6986;DHT22;3533;51.246;6.850;2023-03-14T07:36:19;18.10;43.00
6986;DHT22;3533;51.246;6.850;2023-03-14T07:38:45;18.10;43.00
6986;DHT22;3533;51.246;6.850;2023-03-14T07:41:10;18.10;43.00
6986;DHT22;3533;51.246;6.850;2023-03-14T07:43:36;18.10;43.00
6986;DHT22;3533;51.246;6.850;2023-03-14T07:46:01;18.10;43.00
6986;DHT22;3533;51.246;6.850;2023-03-14T07:48:27;18.10;43.00
6986;DHT22;3533;51.246;6.850;2023-03-14T07:50:54;18.10;43.00
6986;DHT22;3533;51.246;6.850;2023-03-14T07:53:19;18.10;43.00
6986;DHT22;3533;51.246;6.850;2023-03-14T07:55:45;18.10;43.80
6986;DHT22;3533;51.246;6.850;2023-03-14T07:58:12;18.10;43.00
6986;DHT22;3533;51.246;6.850;2023-03-14T08:00:37;18.10;43.00
6986;DHT22;3533;51.246;6.850;2023-03-14T08:03:03;18.10;43.00
6986;DHT22;3533;51.246;6.850;2023-03-14T08:05:29;18.10;43.00
6986;DHT22;3533;51.246;6.850;2023-03-14T08:07:54;18.10;43.00
6986;DHT22;3533;51.246;6.850;2023-03-14T08:10:20;18.20;43.10
6986;DHT22;3533;51.246;6.850;2023-03-14T08:12:54;18.20;43.10
6986;DHT22;3533;51.246;6.850;2023-03-14T08:15:20;18.10;43.00
6986;DHT22;3533;51.246;6.850;2023-03-14T08:17:45;18.10;43.00
6986;DHT22;3533;51.246;6.850;2023-03-14T08:20:23;18.10;43.00
6986;DHT22;3533;51.246;6.850;2023-03-14T08:22:49;18.20;43.10
6986;DHT22;3533;51.246;6.850;2023-03-14T08:25:15;18.10;43.00
6986;DHT22;3533;51.246;6.850;2023-03-14T08:27:41;18.20;43.10
6986;DHT22;3533;51.246;6.850;2023-03-14T08:30:11;18.10;43.00
6986;DHT22;3533;51.246;6.850;2023-03-14T08:32:37;18.20;43.10
6986;DHT22;3533;51.246;6.850;2023-03-14T08:35:03;18.20;43.10
6986;DHT22;3533;51.246;6.850;2023-03-14T08:37:31;18.20;43.10
6986;DHT22;3533;51.246;6.850;2023-03-14T08:39:57;18.20;43.10
6986;DHT22;3533;51.246;6.850;2023-03-14T08:42:22;18.20;43.10
6986;DHT22;3533;51.246;6.850;2023-03-14T08:44:48;18.20;43.10
6986;DHT22;3533;51.246;6.850;2023-03-14T08:47:13;18.20;43.10
6986;DHT22;3533;51.246;6.850;2023-03-14T08:49:39;18.20;43.10
6986;DHT22;3533;51.246;6.850;2023-03-14T08:52:05;18.20;43.10
6986;DHT22;3533;51.246;6.850;2023-03-14T08:54:31;18.20;43.10
6986;DHT22;3533;51.246;6.850;2023-03-14T08:56:57;18.10;43.00
6986;DHT22;3533;51.246;6.850;2023-03-14T08:59:23;18.20;43.10
6986;DHT22;3533;51.246;6.850;2023-03-14T09:01:48;18.20;43.10
6986;DHT22;3533;51.246;6.850;2023-03-14T09:04:14;18.20;43.10
6986;DHT22;3533;51.246;6.850;2023-03-14T09:06:40;18.20;43.10
6986;DHT22;3533;51.246;6.850;2023-03-14T09:09:05;18.20;43.10
6986;DHT22;3533;51.246;6.850;2023-03-14T09:11:31;18.10;43.00
6986;DHT22;3533;51.246;6.850;2023-03-14T09:13:57;18.20;43.10
6986;DHT22;3533;51.246;6.850;2023-03-14T09:16:23;18.10;43.10
6986;DHT22;3533;51.246;6.850;2023-03-14T09:18:49;18.10;43.00
6986;DHT22;3533;51.246;6.850;2023-03-14T09:21:14;18.20;43.10
6986;DHT22;3533;51.246;6.850;2023-03-14T09:23:41;18.10;43.10
6986;DHT22;3533;51.246;6.850;2023-03-14T09:26:06;18.20;43.10
6986;DHT22;3533;51.246;6.850;2023-03-14T09:28:32;18.20;43.10
6986;DHT22;3533;51.246;6.850;2023-03-14T09:30:57;18.20;43.10
6986;DHT22;3533;51.246;6.850;2023-03-14T09:33:23;18.20;43.10
6986;DHT22;3533;51.246;6.850;2023-03-14T09:35:49;18.10;43.00
6986;DHT22;3533;51.246;6.850;2023-03-14T09:38:15;18.10;43.00
6986;DHT22;3533;51.246;6.850;2023-03-14T09:40:42;18.10;43.00
6986;DHT22;3533;51.246;6.850;2023-03-14T09:43:12;18.10;43.00
6986;DHT22;3533;51.246;6.850;2023-03-14T09:45:40;18.10;43.00
6986;DHT22;3533;51.246;6.850;2023-03-14T09:48:14;18.10;43.00
6986;DHT22;3533;51.246;6.850;2023-03-14T09:50:46;18.10;43.00
6986;DHT22;3533;51.246;6.850;2023-03-14T09:53:19;18.10;43.00
6986;DHT22;3533;51.246;6.850;2023-03-14T09:55:48;18.10;43.00
6986;DHT22;3533;51.246;6.850;2023-03-14T09:58:18;18.10;43.00
6986;DHT22;3533;51.246;6.850;2023-03-14T10:00:44;18.10;43.00
6986;DHT22;3533;51.246;6.850;2023-03-14T10:05:42;18.10;43.00
6986;DHT22;3533;51.246;6.850;2023-03-14T10:08:11;18.10;43.00
6986;DHT22;3533;51.246;6.850;2023-03-14T10:10:37;18.10;43.00
6986;DHT22;3533;51.246;6.850;2023-03-14T10:13:24;18.10;43.00
6986;DHT22;3533;51.246;6.850;2023-03-14T10:15:59;18.00;42.90
6986;DHT22;3533;51.246;6.850;2023-03-14T10:18:27;18.00;42.90
6986;DHT22;3533;51.246;6.850;2023-03-14T10:21:17;18.10;43.40
6986;DHT22;3533;51.246;6.850;2023-03-14T10:23:44;18.00;42.90
6986;DHT22;3533;51.246;6.850;2023-03-14T10:26:18;18.00;42.90
6986;DHT22;3533;51.246;6.850;2023-03-14T10:28:51;18.00;42.90
6986;DHT22;3533;51.246;6.850;2023-03-14T10:31:17;18.00;42.90
6986;DHT22;3533;51.246;6.850;2023-03-14T10:34:00;18.00;42.90
6986;DHT22;3533;51.246;6.850;2023-03-14T10:36:33;18.00;42.90
6986;DHT22;3533;51.246;6.850;2023-03-14T10:41:48;18.00;42.90
6986;DHT22;3533;51.246;6.850;2023-03-14T10:44:19;18.00;42.90
6986;DHT22;3533;51.246;6.850;2023-03-14T10:46:46;18.00;42.90
6986;DHT22;3533;51.246;6.850;2023-03-14T10:49:32;18.00;42.90
6986;DHT22;3533;51.246;6.850;2023-03-14T10:55:01;18.00;43.70
6986;DHT22;3533;51.246;6.850;2023-03-14T10:57:28;18.00;42.90
6986;DHT22;3533;51.246;6.850;2023-03-14T10:59:55;18.00;42.90
6986;DHT22;3533;51.246;6.850;2023-03-14T11:02:49;18.00;42.90
6986;DHT22;3533;51.246;6.850;2023-03-14T11:05:32;18.00;42.90
6986;DHT22;3533;51.246;6.850;2023-03-14T11:08:11;18.00;42.90
6986;DHT22;3533;51.246;6.850;2023-03-14T11:10:39;18.00;43.00
6986;DHT22;3533;51.246;6.850;2023-03-14T11:13:23;18.00;43.00
6986;DHT22;3533;51.246;6.850;2023-03-14T11:21:13;18.00;42.90
6986;DHT22;3533;51.246;6.850;2023-03-14T11:23:48;18.00;42.90
6986;DHT22;3533;51.246;6.850;2023-03-14T11:34:50;18.00;42.90
6986;DHT22;3533;51.246;6.850;2023-03-14T11:37:28;18.00;42.90
6986;DHT22;3533;51.246;6.850;2023-03-14T11:42:43;18.00;42.90
6986;DHT22;3533;51.246;6.850;2023-03-14T11:45:20;18.00;42.90
6986;DHT22;3533;51.246;6.850;2023-03-14T11:48:05;18.00;42.90
6986;DHT22;3533;51.246;6.850;2023-03-14T11:50:32;18.00;42.90
6986;DHT22;3533;51.246;6.850;2023-03-14T11:55:40;18.00;42.90
6986;DHT22;3533;51.246;6.850;2023-03-14T12:00:40;18.00;42.90
6986;DHT22;3533;51.246;6.850;2023-03-14T12:03:31;18.00;42.90
6986;DHT22;3533;51.246;6.850;2023-03-14T12:06:02;18.00;42.90
6986;DHT22;3533;51.246;6.850;2023-03-14T12:08:43;18.00;42.90
6986;DHT22;3533;51.246;6.850;2023-03-14T12:11:30;18.00;42.90
6986;DHT22;3533;51.246;6.850;2023-03-14T12:13:57;18.00;42.90
6986;DHT22;3533;51.246;6.850;2023-03-14T12:18:48;18.00;42.90
6986;DHT22;3533;51.246;6.850;2023-03-14T12:21:14;18.00;42.90
6986;DHT22;3533;51.246;6.850;2023-03-14T12:28:37;18.00;42.90
6986;DHT22;3533;51.246;6.850;2023-03-14T12:31:36;18.00;42.90
6986;DHT22;3533;51.246;6.850;2023-03-14T12:39:21;18.00;42.90
6986;DHT22;3533;51.246;6.850;2023-03-14T12:49:54;18.00;43.00
6986;DHT22;3533;51.246;6.850;2023-03-14T12:52:36;18.00;42.90
6986;DHT22;3533;51.246;6.850;2023-03-14T12:55:15;18.00;42.90
6986;DHT22;3533;51.246;6.850;2023-03-14T12:58:12;18.00;42.80
6986;DHT22;3533;51.246;6.850;2023-03-14T13:00:42;18.00;42.60
6986;DHT22;3533;51.246;6.850;2023-03-14T13:03:19;18.00;42.60
6986;DHT22;3533;51.246;6.850;2023-03-14T13:05:54;18.00;42.60
6986;DHT22;3533;51.246;6.850;2023-03-14T13:08:52;18.00;42.70
6986;DHT22;3533;51.246;6.850;2023-03-14T13:11:22;18.00;42.80
6986;DHT22;3533;51.246;6.850;2023-03-14T13:13:56;18.00;42.90
6986;DHT22;3533;51.246;6.850;2023-03-14T13:16:22;18.00;42.90
6986;DHT22;3533;51.246;6.850;2023-03-14T13:18:50;18.00;42.80
6986;DHT22;3533;51.246;6.850;2023-03-14T13:21:27;18.00;42.70
6986;DHT22;3533;51.246;6.850;2023-03-14T13:24:03;18.00;42.80
6986;DHT22;3533;51.246;6.850;2023-03-14T13:26:35;18.00;42.70
6986;DHT22;3533;51.246;6.850;2023-03-14T13:29:25;18.00;42.70
6986;DHT22;3533;51.246;6.850;2023-03-14T13:31:55;18.00;42.70
6986;DHT22;3533;51.246;6.850;2023-03-14T13:34:29;18.00;42.80
6986;DHT22;3533;51.246;6.850;2023-03-14T13:36:55;18.00;42.80
6986;DHT22;3533;51.246;6.850;2023-03-14T13:39:23;18.00;42.70
6986;DHT22;3533;51.246;6.850;2023-03-14T13:41:58;18.00;42.70
6986;DHT22;3533;51.246;6.850;2023-03-14T13:44:27;18.00;42.70
6986;DHT22;3533;51.246;6.850;2023-03-14T13:46:59;18.00;42.70
6986;DHT22;3533;51.246;6.850;2023-03-14T13:49:26;18.00;42.60
6986;DHT22;3533;51.246;6.850;2023-03-14T13:51:52;18.00;42.60
6986;DHT22;3533;51.246;6.850;2023-03-14T13:54:21;18.00;42.60
6986;DHT22;3533;51.246;6.850;2023-03-14T13:56:48;18.00;42.60
6986;DHT22;3533;51.246;6.850;2023-03-14T13:59:27;18.00;42.60
6986;DHT22;3533;51.246;6.850;2023-03-14T14:01:55;18.00;42.60
6986;DHT22;3533;51.246;6.850;2023-03-14T14:04:23;18.00;42.60
6986;DHT22;3533;51.246;6.850;2023-03-14T14:06:57;18.00;42.50
6986;DHT22;3533;51.246;6.850;2023-03-14T14:09:35;18.00;42.50
6986;DHT22;3533;51.246;6.850;2023-03-14T14:14:37;18.00;42.60
6986;DHT22;3533;51.246;6.850;2023-03-14T14:17:11;18.00;42.50
6986;DHT22;3533;51.246;6.850;2023-03-14T14:19:39;18.00;42.50
6986;DHT22;3533;51.246;6.850;2023-03-14T14:22:07;18.00;42.50
6986;DHT22;3533;51.246;6.850;2023-03-14T14:24:34;18.00;42.50
6986;DHT22;3533;51.246;6.850;2023-03-14T14:29:31;18.00;42.40
6986;DHT22;3533;51.246;6.850;2023-03-14T14:32:11;18.00;42.50
6986;DHT22;3533;51.246;6.850;2023-03-14T14:34:41;18.00;42.50
6986;DHT22;3533;51.246;6.850;2023-03-14T14:37:50;18.00;42.50
6986;DHT22;3533;51.246;6.850;2023-03-14T14:40:22;18.00;42.50
6986;DHT22;3533;51.246;6.850;2023-03-14T14:42:49;18.00;42.40
6986;DHT22;3533;51.246;6.850;2023-03-14T14:45:20;18.00;42.40
6986;DHT22;3533;51.246;6.850;2023-03-14T14:55:57;18.00;42.40
6986;DHT22;3533;51.246;6.850;2023-03-14T14:58:27;18.00;42.50
6986;DHT22;3533;51.246;6.850;2023-03-14T15:01:05;18.00;42.40
6986;DHT22;3533;51.246;6.850;2023-03-14T15:03:32;18.00;42.40
6986;DHT22;3533;51.246;6.850;2023-03-14T15:05:59;18.00;42.50
6986;DHT22;3533;51.246;6.850;2023-03-14T15:08:26;18.00;42.40
6986;DHT22;3533;51.246;6.850;2023-03-14T15:10:51;18.00;42.40
6986;DHT22;3533;51.246;6.850;2023-03-14T15:13:17;18.00;42.40
6986;DHT22;3533;51.246;6.850;2023-03-14T15:15:43;18.00;42.40
6986;DHT22;3533;51.246;6.850;2023-03-14T15:18:18;18.00;42.40
6986;DHT22;3533;51.246;6.850;2023-03-14T15:20:45;18.00;42.40
6986;DHT22;3533;51.246;6.850;2023-03-14T15:23:15;18.00;42.40
6986;DHT22;3533;51.246;6.850;2023-03-14T15:25:42;18.00;42.30
6986;DHT22;3533;51.246;6.850;2023-03-14T15:28:30;18.00;42.30
6986;DHT22;3533;51.246;6.850;2023-03-14T15:30:58;18.00;42.30
6986;DHT22;3533;51.246;6.850;2023-03-14T15:33:25;18.00;42.30
6986;DHT22;3533;51.246;6.850;2023-03-14T15:35:51;18.00;42.20
6986;DHT22;3533;51.246;6.850;2023-03-14T15:38:19;18.00;42.20
6986;DHT22;3533;51.246;6.850;2023-03-14T15:40:46;18.00;42.20
6986;DHT22;3533;51.246;6.850;2023-03-14T15:43:12;18.00;42.20
6986;DHT22;3533;51.246;6.850;2023-03-14T15:45:38;18.00;42.20
6986;DHT22;3533;51.246;6.850;2023-03-14T15:48:04;18.00;42.10
6986;DHT22;3533;51.246;6.850;2023-03-14T15:50:30;18.00;42.10
6986;DHT22;3533;51.246;6.850;2023-03-14T15:52:55;18.00;42.10
6986;DHT22;3533;51.246;6.850;2023-03-14T15:55:22;18.00;42.00
6986;DHT22;3533;51.246;6.850;2023-03-14T15:57:48;18.00;42.00
6986;DHT22;3533;51.246;6.850;2023-03-14T16:00:18;18.00;42.00
6986;DHT22;3533;51.246;6.850;2023-03-14T16:02:44;18.00;42.00
6986;DHT22;3533;51.246;6.850;2023-03-14T16:05:11;18.00;42.00
6986;DHT22;3533;51.246;6.850;2023-03-14T16:07:37;18.00;41.90
6986;DHT22;3533;51.246;6.850;2023-03-14T16:10:04;18.00;41.90
6986;DHT22;3533;51.246;6.850;2023-03-14T16:12:30;18.00;41.90
6986;DHT22;3533;51.246;6.850;2023-03-14T16:14:56;18.00;42.00
6986;DHT22;3533;51.246;6.850;2023-03-14T16:17:21;18.00;41.90
6986;DHT22;3533;51.246;6.850;2023-03-14T16:19:47;18.00;41.90
6986;DHT22;3533;51.246;6.850;2023-03-14T16:22:12;18.00;41.90
6986;DHT22;3533;51.246;6.850;2023-03-14T16:24:38;18.00;41.90
6986;DHT22;3533;51.246;6.850;2023-03-14T16:27:04;18.00;41.90
6986;DHT22;3533;51.246;6.850;2023-03-14T16:29:30;18.00;41.80
6986;DHT22;3533;51.246;6.850;2023-03-14T16:31:56;18.00;41.80
6986;DHT22;3533;51.246;6.850;2023-03-14T16:34:21;18.00;41.80
6986;DHT22;3533;51.246;6.850;2023-03-14T16:36:47;18.00;41.80
6986;DHT22;3533;51.246;6.850;2023-03-14T16:39:13;18.10;41.90
6986;DHT22;3533;51.246;6.850;2023-03-14T16:41:38;18.10;42.00
6986;DHT22;3533;51.246;6.850;2023-03-14T16:44:04;18.00;41.70
6986;DHT22;3533;51.246;6.850;2023-03-14T16:46:29;18.10;41.80
6986;DHT22;3533;51.246;6.850;2023-03-14T16:48:56;18.00;41.60
6986;DHT22;3533;51.246;6.850;2023-03-14T16:51:22;18.10;41.70
6986;DHT22;3533;51.246;6.850;2023-03-14T16:53:48;18.10;41.70
6986;DHT22;3533;51.246;6.850;2023-03-14T16:56:14;18.10;41.80
6986;DHT22;3533;51.246;6.850;2023-03-14T16:58:40;18.10;41.60
6986;DHT22;3533;51.246;6.850;2023-03-14T17:01:07;18.10;41.60
6986;DHT22;3533;51.246;6.850;2023-03-14T17:03:41;18.10;41.60
6986;DHT22;3533;51.246;6.850;2023-03-14T17:06:09;18.10;41.50
6986;DHT22;3533;51.246;6.850;2023-03-14T17:08:35;18.10;41.50
6986;DHT22;3533;51.246;6.850;2023-03-14T17:11:01;18.10;41.50
6986;DHT22;3533;51.246;6.850;2023-03-14T17:13:26;18.10;41.50
6986;DHT22;3533;51.246;6.850;2023-03-14T17:15:57;18.10;41.50